createdAt,value
2023-04-10T00:01:07.313Z,13.65
2023-04-10T00:03:33.918Z,12.82
2023-04-10T00:06:00.477Z,13.23
2023-04-10T00:08:27.021Z,13.43
2023-04-10T00:10:54.449Z,13.35
2023-04-10T00:13:20.990Z,12.88
2023-04-10T00:15:48.210Z,12.75
2023-04-10T00:18:14.773Z,12.02
2023-04-10T00:20:41.776Z,12.23
2023-04-10T00:23:08.321Z,12.95
2023-04-10T00:25:35.071Z,13.02
2023-04-10T00:28:01.608Z,12.30
2023-04-10T00:30:28.213Z,12.95
2023-04-10T00:32:54.768Z,11.73
2023-04-10T00:35:21.638Z,11.88
2023-04-10T00:37:50.048Z,11.77
2023-04-10T00:40:16.775Z,12.50
2023-04-10T00:42:43.319Z,12.25
2023-04-10T00:45:10.331Z,11.57
2023-04-10T00:47:37.699Z,11.50
2023-04-10T00:50:05.328Z,11.85
2023-04-10T00:52:32.686Z,11.57
2023-04-10T00:54:59.314Z,12.35
2023-04-10T00:57:27.162Z,12.63
2023-04-10T00:59:54.043Z,13.13
2023-04-10T01:02:21.048Z,12.25
2023-04-10T01:04:48.112Z,13.48
2023-04-10T01:07:33.497Z,12.52
2023-04-10T01:10:07.208Z,12.13
2023-04-10T01:12:50.449Z,12.60
2023-04-10T01:15:20.269Z,12.25
2023-04-10T01:17:52.774Z,12.60
2023-04-10T01:20:23.601Z,12.18
2023-04-10T01:23:14.839Z,12.43
2023-04-10T01:25:47.973Z,12.00
2023-04-10T01:28:36.947Z,12.18
2023-04-10T01:31:07.173Z,12.45
2023-04-10T01:33:40.690Z,11.95
2023-04-10T01:36:09.419Z,12.30
2023-04-10T01:38:39.771Z,12.18
2023-04-10T01:41:08.101Z,12.50
2023-04-10T01:43:35.962Z,12.60
2023-04-10T01:46:03.719Z,12.38
2023-04-10T01:48:30.832Z,12.35
2023-04-10T01:50:57.990Z,12.95
2023-04-10T01:53:25.714Z,12.90
2023-04-10T01:55:53.619Z,12.80
2023-04-10T01:58:20.597Z,12.20
2023-04-10T02:00:47.189Z,12.02
2023-04-10T02:03:15.363Z,11.82
2023-04-10T02:06:10.885Z,12.60
2023-04-10T02:08:46.833Z,12.55
2023-04-10T02:11:23.176Z,12.63
2023-04-10T02:13:53.034Z,12.52
2023-04-10T02:16:22.680Z,12.40
2023-04-10T02:18:52.258Z,12.13
2023-04-10T02:21:18.780Z,11.65
2023-04-10T02:23:45.626Z,12.35
2023-04-10T02:26:12.205Z,11.85
2023-04-10T02:28:39.806Z,11.95
2023-04-10T02:31:07.366Z,12.55
2023-04-10T02:33:33.964Z,11.95
2023-04-10T02:36:01.370Z,11.75
2023-04-10T02:38:28.711Z,12.73
2023-04-10T02:40:55.793Z,12.30
2023-04-10T02:43:22.397Z,12.65
2023-04-10T02:45:49.001Z,12.65
2023-04-10T02:48:22.333Z,12.02
2023-04-10T02:50:58.251Z,12.60
2023-04-10T02:55:56.453Z,12.27
2023-04-10T02:58:23.182Z,11.80
2023-04-10T03:00:52.807Z,12.45
2023-04-10T03:03:28.654Z,12.18
2023-04-10T03:05:56.164Z,13.05
2023-04-10T03:08:28.056Z,12.48
2023-04-10T03:10:54.677Z,12.15
2023-04-10T03:13:23.286Z,13.00
2023-04-10T03:15:49.832Z,12.45
2023-04-10T03:18:16.420Z,12.93
2023-04-10T03:20:45.270Z,12.18
2023-04-10T03:23:12.010Z,12.35
2023-04-10T03:25:38.574Z,13.07
2023-04-10T03:28:07.195Z,12.65
2023-04-10T03:30:35.882Z,12.57
2023-04-10T03:33:03.145Z,12.57
2023-04-10T03:35:29.664Z,12.90
2023-04-10T03:37:56.278Z,12.23
2023-04-10T03:40:22.842Z,13.00
2023-04-10T03:42:49.514Z,12.85
2023-04-10T03:45:16.028Z,13.30
2023-04-10T03:47:43.272Z,13.65
2023-04-10T03:50:12.960Z,13.15
2023-04-10T03:52:46.659Z,13.07
2023-04-10T03:55:19.190Z,14.00
2023-04-10T03:57:47.076Z,13.52
2023-04-10T04:00:14.528Z,13.10
2023-04-10T04:02:47.943Z,13.63
2023-04-10T04:05:22.003Z,13.13
2023-04-10T04:08:08.694Z,12.88
2023-04-10T04:10:58.117Z,13.38
2023-04-10T04:13:34.223Z,14.30
2023-04-10T04:16:17.499Z,13.70
2023-04-10T04:18:47.482Z,13.98
2023-04-10T04:21:21.554Z,13.77
2023-04-10T04:24:06.891Z,13.25
2023-04-10T04:26:53.663Z,13.38
2023-04-10T04:29:46.585Z,14.35
2023-04-10T04:32:22.845Z,14.05
2023-04-10T04:34:56.706Z,13.98
2023-04-10T04:37:43.520Z,14.85
2023-04-10T04:40:31.749Z,13.63
2023-04-10T04:43:04.669Z,13.95
2023-04-10T04:46:06.680Z,14.23
2023-04-10T04:48:53.569Z,14.23
2023-04-10T04:51:40.456Z,14.77
2023-04-10T04:54:23.804Z,14.25
2023-04-10T04:57:07.126Z,13.98
2023-04-10T05:00:03.423Z,13.40
2023-04-10T05:02:48.491Z,14.10
2023-04-10T05:05:41.121Z,13.90
2023-04-10T05:08:19.431Z,15.00
2023-04-10T05:11:00.480Z,14.80
2023-04-10T05:13:36.044Z,14.88
2023-04-10T05:16:34.650Z,14.43
2023-04-10T05:19:23.887Z,14.85
2023-04-10T05:21:50.833Z,14.80
2023-04-10T05:24:36.076Z,14.82
2023-04-10T05:27:14.694Z,15.05
2023-04-10T05:29:59.861Z,14.00
2023-04-10T05:32:39.500Z,14.50
2023-04-10T05:35:24.586Z,14.48
2023-04-10T05:38:17.333Z,13.90
2023-04-10T05:41:06.841Z,14.27
2023-04-10T05:43:37.903Z,14.98
2023-04-10T05:46:12.437Z,13.95
2023-04-10T05:48:49.495Z,14.75
2023-04-10T05:51:36.347Z,14.35
2023-04-10T05:54:23.292Z,13.90
2023-04-10T05:57:25.799Z,14.48
2023-04-10T06:00:05.322Z,13.82
2023-04-10T06:02:41.048Z,14.13
2023-04-10T06:05:13.505Z,14.00
2023-04-10T06:07:42.061Z,14.40
2023-04-10T06:10:10.632Z,13.93
2023-04-10T06:12:37.161Z,13.52
2023-04-10T06:15:06.372Z,13.30
2023-04-10T06:17:35.542Z,13.77
2023-04-10T06:20:06.061Z,13.45
2023-04-10T06:22:32.596Z,13.55
2023-04-10T06:24:59.125Z,12.75
2023-04-10T06:27:25.724Z,11.93
2023-04-10T06:29:52.367Z,13.30
2023-04-10T06:32:23.295Z,13.40
2023-04-10T06:34:50.199Z,13.30
2023-04-10T06:37:16.702Z,13.15
2023-04-10T06:39:43.337Z,13.00
2023-04-10T06:42:10.091Z,13.23
2023-04-10T06:44:53.667Z,13.10
2023-04-10T06:47:20.185Z,12.50
2023-04-10T06:49:46.729Z,12.82
2023-04-10T06:52:13.429Z,12.95
2023-04-10T06:54:40.749Z,13.07
2023-04-10T06:57:07.312Z,12.85
2023-04-10T06:59:35.543Z,12.85
2023-04-10T07:02:05.477Z,12.65
2023-04-10T07:04:32.637Z,12.40
2023-04-10T07:06:59.290Z,11.98
2023-04-10T07:09:28.860Z,12.57
2023-04-10T07:11:55.398Z,12.70
2023-04-10T07:14:21.901Z,12.40
2023-04-10T07:16:49.328Z,12.68
2023-04-10T07:19:15.878Z,12.55
2023-04-10T07:21:42.429Z,12.60
2023-04-10T07:24:08.995Z,12.77
2023-04-10T07:26:35.606Z,13.23
2023-04-10T07:29:02.314Z,12.55
2023-04-10T07:31:28.915Z,12.18
2023-04-10T07:33:55.710Z,13.65
2023-04-10T07:36:22.304Z,12.50
2023-04-10T07:38:48.849Z,13.02
2023-04-10T07:41:15.381Z,12.35
2023-04-10T07:43:41.901Z,12.38
2023-04-10T07:46:08.581Z,12.20
2023-04-10T07:48:35.235Z,13.18
2023-04-10T07:51:02.400Z,12.85
2023-04-10T07:53:28.967Z,12.60
2023-04-10T07:55:55.871Z,12.65
2023-04-10T07:58:22.372Z,12.25
2023-04-10T08:00:48.896Z,12.98
2023-04-10T08:03:15.999Z,11.70
2023-04-10T08:05:42.684Z,11.93
2023-04-10T08:08:09.262Z,11.90
2023-04-10T08:10:39.243Z,12.32
2023-04-10T08:13:06.248Z,11.45
2023-04-10T08:15:33.111Z,11.60
2023-04-10T08:17:59.742Z,11.45
2023-04-10T08:20:26.392Z,11.32
2023-04-10T08:22:54.316Z,11.07
2023-04-10T08:25:20.894Z,11.18
2023-04-10T08:27:47.418Z,11.50
2023-04-10T08:30:13.944Z,11.23
2023-04-10T08:32:40.555Z,11.30
2023-04-10T08:35:07.429Z,11.57
2023-04-10T08:37:34.050Z,10.90
2023-04-10T08:40:00.596Z,11.30
2023-04-10T08:42:27.359Z,11.65
2023-04-10T08:44:54.026Z,10.55
2023-04-10T08:47:22.475Z,11.35
2023-04-10T08:50:03.798Z,11.13
2023-04-10T08:52:34.246Z,11.02
2023-04-10T08:55:06.025Z,11.13
2023-04-10T08:59:59.569Z,10.48
2023-04-10T09:02:28.937Z,10.48
2023-04-10T09:04:58.901Z,11.07
2023-04-10T09:07:26.915Z,10.57
2023-04-10T09:09:53.514Z,11.02
2023-04-10T09:12:20.066Z,10.98
2023-04-10T09:14:48.512Z,11.05
2023-04-10T09:17:20.237Z,11.00
2023-04-10T09:22:15.356Z,10.38
2023-04-10T09:24:43.980Z,11.32
2023-04-10T09:27:10.942Z,11.73
2023-04-10T09:29:44.985Z,10.77
2023-04-10T09:32:12.538Z,10.48
2023-04-10T09:34:56.775Z,10.98
2023-04-10T09:37:34.672Z,10.52
2023-04-10T09:40:01.704Z,10.43
2023-04-10T09:42:33.912Z,10.35
2023-04-10T09:45:01.764Z,11.35
2023-04-10T09:47:28.576Z,10.50
2023-04-10T09:49:57.105Z,10.82
2023-04-10T09:52:34.240Z,10.68
2023-04-10T09:55:04.394Z,11.30
2023-04-10T09:57:32.910Z,11.52
2023-04-10T10:00:08.293Z,11.15
2023-04-10T10:02:41.396Z,10.70
2023-04-10T10:05:09.088Z,10.80
2023-04-10T10:07:36.726Z,10.57
2023-04-10T10:10:03.951Z,10.30
2023-04-10T10:12:54.244Z,10.60
2023-04-10T10:15:44.260Z,10.02
2023-04-10T10:18:21.518Z,9.95
2023-04-10T10:20:50.209Z,10.23
2023-04-10T10:23:18.307Z,10.30
2023-04-10T10:25:48.831Z,10.05
2023-04-10T10:28:17.618Z,10.02
2023-04-10T10:30:45.283Z,9.68
2023-04-10T10:33:13.906Z,9.65
2023-04-10T10:35:41.562Z,9.65
2023-04-10T10:38:08.404Z,9.70
2023-04-10T10:40:59.360Z,9.75
2023-04-10T10:43:54.768Z,9.23
2023-04-10T10:46:33.892Z,8.48
2023-04-10T10:49:01.775Z,7.97
2023-04-10T10:51:49.279Z,8.38
2023-04-10T10:54:29.137Z,7.82
2023-04-10T10:56:55.943Z,7.82
2023-04-10T10:59:47.340Z,7.72
2023-04-10T11:02:16.542Z,7.55
2023-04-10T11:04:47.064Z,7.85
2023-04-10T11:07:14.821Z,8.23
2023-04-10T11:09:52.420Z,8.00
2023-04-10T11:12:24.161Z,8.02
2023-04-10T11:15:01.899Z,7.82
2023-04-10T11:17:51.657Z,8.05
2023-04-10T11:20:21.850Z,8.63
2023-04-10T11:23:11.647Z,7.90
2023-04-10T11:25:52.874Z,8.00
2023-04-10T11:28:39.352Z,8.00
2023-04-10T11:31:23.056Z,8.00
2023-04-10T11:34:00.270Z,8.20
2023-04-10T11:36:27.502Z,7.70
2023-04-10T11:38:55.218Z,7.70
2023-04-10T11:41:27.208Z,8.02
2023-04-10T11:43:53.691Z,7.38
2023-04-10T11:46:20.514Z,7.60
2023-04-10T11:48:47.139Z,7.75
2023-04-10T11:51:14.658Z,7.50
2023-04-10T11:53:42.409Z,7.43
2023-04-10T11:56:16.401Z,7.25
2023-04-10T11:58:43.095Z,7.63
2023-04-10T12:01:14.261Z,7.30
2023-04-10T12:03:42.947Z,7.40
2023-04-10T12:06:14.391Z,7.57
2023-04-10T12:08:43.321Z,7.70
2023-04-10T12:11:11.048Z,7.30
2023-04-10T12:13:38.091Z,7.72
2023-04-10T12:16:08.452Z,7.85
2023-04-10T12:18:35.860Z,7.65
2023-04-10T12:21:02.861Z,7.28
2023-04-10T12:23:30.375Z,7.22
2023-04-10T12:26:09.411Z,7.40
2023-04-10T12:28:37.876Z,7.57
2023-04-10T12:31:04.788Z,6.90
2023-04-10T12:33:31.665Z,6.95
2023-04-10T12:35:59.152Z,6.78
2023-04-10T12:38:37.087Z,7.03
2023-04-10T12:41:04.482Z,6.60
2023-04-10T12:43:49.618Z,7.22
2023-04-10T12:46:28.099Z,7.43
2023-04-10T12:48:56.388Z,7.10
2023-04-10T12:51:48.995Z,7.40
2023-04-10T12:54:36.281Z,7.03
2023-04-10T12:57:04.154Z,7.22
2023-04-10T12:59:31.450Z,7.35
2023-04-10T13:01:58.182Z,7.10
2023-04-10T13:04:25.078Z,7.30
2023-04-10T13:06:54.303Z,7.30
2023-04-10T13:09:21.213Z,6.70
2023-04-10T13:11:49.622Z,6.88
2023-04-10T13:14:17.717Z,6.97
2023-04-10T13:16:44.254Z,6.70
2023-04-10T13:19:10.916Z,7.05
2023-04-10T13:21:37.500Z,7.13
2023-04-10T13:24:04.080Z,6.97
2023-04-10T13:26:30.662Z,6.68
2023-04-10T13:28:57.370Z,6.50
2023-04-10T13:31:24.084Z,6.25
2023-04-10T13:33:50.654Z,6.50
2023-04-10T13:36:17.290Z,6.47
2023-04-10T13:38:43.939Z,6.57
2023-04-10T13:41:10.641Z,6.90
2023-04-10T13:43:37.566Z,6.50
2023-04-10T13:46:04.154Z,6.30
2023-04-10T13:48:40.021Z,6.20
2023-04-10T13:51:10.242Z,6.75
2023-04-10T13:53:36.743Z,6.68
2023-04-10T13:56:03.260Z,6.30
2023-04-10T13:58:31.864Z,6.55
2023-04-10T14:00:58.878Z,6.57
2023-04-10T14:03:25.701Z,6.10
2023-04-10T14:05:52.901Z,6.50
2023-04-10T14:08:20.212Z,6.25
2023-04-10T14:10:56.246Z,6.72
2023-04-10T14:13:22.789Z,6.32
2023-04-10T14:15:51.910Z,6.70
2023-04-10T14:18:18.444Z,6.53
2023-04-10T14:20:45.272Z,6.47
2023-04-10T14:23:17.979Z,6.78
2023-04-10T14:25:45.499Z,6.80
2023-04-10T14:28:17.513Z,6.93
2023-04-10T14:30:51.133Z,6.82
2023-04-10T14:33:20.043Z,6.57
2023-04-10T14:35:47.388Z,7.30
2023-04-10T14:38:14.021Z,6.82
2023-04-10T14:40:40.780Z,7.20
2023-04-10T14:43:07.680Z,7.18
2023-04-10T14:45:34.805Z,6.70
2023-04-10T14:48:02.526Z,6.50
2023-04-10T14:50:31.729Z,6.50
2023-04-10T14:53:00.317Z,6.38
2023-04-10T14:55:29.136Z,6.40
2023-04-10T14:57:58.255Z,6.20
2023-04-10T15:00:25.405Z,8.15
2023-04-10T15:02:53.206Z,7.13
2023-04-10T15:05:22.287Z,6.70
2023-04-10T15:07:48.893Z,6.68
2023-04-10T15:10:15.433Z,6.60
2023-04-10T15:12:42.478Z,6.45
2023-04-10T15:15:09.593Z,6.50
2023-04-10T15:17:36.259Z,7.32
2023-04-10T15:20:04.892Z,7.25
2023-04-10T15:22:31.349Z,7.07
2023-04-10T15:24:57.917Z,6.75
2023-04-10T15:27:24.771Z,6.55
2023-04-10T15:29:51.340Z,6.00
2023-04-10T15:32:18.082Z,5.93
2023-04-10T15:34:45.035Z,6.35
2023-04-10T15:37:11.601Z,6.13
2023-04-10T15:39:38.084Z,5.68
2023-04-10T15:42:06.068Z,5.72
2023-04-10T15:44:32.659Z,5.93
2023-04-10T15:46:59.375Z,6.20
2023-04-10T15:49:36.100Z,6.55
2023-04-10T15:52:05.011Z,8.52
2023-04-10T15:54:33.425Z,7.05
2023-04-10T15:56:59.948Z,6.40
2023-04-10T15:59:26.500Z,11.65
2023-04-10T16:01:53.099Z,8.90
2023-04-10T16:04:19.716Z,8.35
2023-04-10T16:06:46.480Z,8.20
2023-04-10T16:09:24.889Z,6.65
2023-04-10T16:11:52.836Z,6.70
2023-04-10T16:14:19.501Z,7.53
2023-04-10T16:16:46.222Z,7.00
2023-04-10T16:19:12.726Z,6.75
2023-04-10T16:21:39.571Z,6.78
2023-04-10T16:24:06.352Z,6.50
2023-04-10T16:26:32.904Z,6.45
2023-04-10T16:28:59.472Z,6.70
2023-04-10T16:31:26.065Z,6.90
2023-04-10T16:33:52.767Z,7.18
2023-04-10T16:36:19.370Z,7.47
2023-04-10T16:38:49.515Z,7.38
2023-04-10T16:41:18.266Z,7.75
2023-04-10T16:43:44.824Z,8.15
2023-04-10T16:46:11.417Z,8.70
2023-04-10T16:48:38.183Z,8.50
2023-04-10T16:51:06.162Z,9.00
2023-04-10T16:53:35.699Z,9.45
2023-04-10T16:56:04.754Z,9.30
2023-04-10T16:58:33.810Z,9.40
2023-04-10T17:01:00.639Z,9.43
2023-04-10T17:03:27.232Z,9.32
2023-04-10T17:05:53.791Z,9.00
2023-04-10T17:08:20.321Z,9.13
2023-04-10T17:10:46.855Z,9.30
2023-04-10T17:13:13.444Z,9.48
2023-04-10T17:15:39.943Z,9.18
2023-04-10T17:18:06.566Z,9.13
2023-04-10T17:20:36.813Z,8.98
2023-04-10T17:23:03.436Z,9.02
2023-04-10T17:25:30.358Z,8.50
2023-04-10T17:27:57.200Z,9.07
2023-04-10T17:30:23.762Z,9.07
2023-04-10T17:32:50.378Z,8.73
2023-04-10T17:35:17.020Z,8.88
2023-04-10T17:37:43.563Z,8.82
2023-04-10T17:40:10.983Z,8.52
2023-04-10T17:42:37.528Z,9.10
2023-04-10T17:45:04.355Z,8.60
2023-04-10T17:47:31.298Z,8.63
2023-04-10T17:49:58.018Z,8.80
2023-04-10T17:52:24.535Z,9.20
2023-04-10T17:54:50.992Z,9.38
2023-04-10T17:57:17.465Z,8.07
2023-04-10T17:59:44.103Z,8.15
2023-04-10T18:02:10.701Z,7.60
2023-04-10T18:04:37.212Z,8.23
2023-04-10T18:07:03.749Z,8.20
2023-04-10T18:09:30.253Z,8.23
2023-04-10T18:11:57.387Z,7.63
2023-04-10T18:14:23.917Z,7.07
2023-04-10T18:16:50.456Z,6.75
2023-04-10T18:19:17.027Z,6.50
2023-04-10T18:21:43.932Z,7.53
2023-04-10T18:24:13.985Z,6.53
2023-04-10T18:26:40.598Z,6.28
2023-04-10T18:29:07.733Z,6.40
2023-04-10T18:31:34.317Z,6.28
2023-04-10T18:34:07.716Z,6.05
2023-04-10T18:36:35.179Z,6.32
2023-04-10T18:39:01.863Z,6.05
2023-04-10T18:41:28.483Z,5.80
2023-04-10T18:44:04.338Z,5.82
2023-04-10T18:46:32.387Z,5.75
2023-04-10T18:49:00.788Z,5.35
2023-04-10T18:51:27.785Z,5.30
2023-04-10T18:53:54.449Z,5.28
2023-04-10T18:56:21.213Z,5.20
2023-04-10T18:58:49.950Z,4.93
2023-04-10T19:01:17.788Z,5.05
2023-04-10T19:03:46.725Z,4.80
2023-04-10T19:06:14.589Z,5.45
2023-04-10T19:08:41.060Z,5.35
2023-04-10T19:11:07.842Z,4.68
2023-04-10T19:13:34.569Z,4.55
2023-04-10T19:16:04.155Z,4.63
2023-04-10T19:18:31.240Z,4.20
2023-04-10T19:20:59.195Z,4.45
2023-04-10T19:23:26.251Z,4.60
2023-04-10T19:25:54.563Z,4.43
2023-04-10T19:28:23.067Z,4.40
2023-04-10T19:30:49.803Z,3.85
2023-04-10T19:33:17.034Z,4.25
2023-04-10T19:35:43.558Z,3.83
2023-04-10T19:38:10.126Z,3.92
2023-04-10T19:40:37.135Z,4.18
2023-04-10T19:43:03.802Z,3.88
2023-04-10T19:45:32.304Z,3.95
2023-04-10T19:47:59.177Z,4.00
2023-04-10T19:50:28.231Z,4.00
2023-04-10T19:52:54.793Z,3.70
2023-04-10T19:55:21.427Z,3.80
2023-04-10T19:57:48.357Z,3.90
2023-04-10T20:00:14.966Z,3.75
2023-04-10T20:02:41.840Z,3.78
2023-04-10T20:05:08.998Z,4.00
2023-04-10T20:07:36.127Z,4.05
2023-04-10T20:10:03.630Z,4.25
2023-04-10T20:12:33.006Z,4.53
2023-04-10T20:15:00.360Z,4.45
2023-04-10T20:17:27.516Z,4.38
2023-04-10T20:19:54.080Z,4.60
2023-04-10T20:22:20.979Z,4.63
2023-04-10T20:24:47.536Z,4.32
2023-04-10T20:27:17.192Z,4.93
2023-04-10T20:29:43.665Z,4.47
2023-04-10T20:32:10.162Z,4.57
2023-04-10T20:34:36.874Z,4.50
2023-04-10T20:37:03.573Z,4.38
2023-04-10T20:39:30.240Z,4.35
2023-04-10T20:41:57.392Z,4.82
2023-04-10T20:44:23.962Z,4.88
2023-04-10T20:46:50.889Z,4.93
2023-04-10T20:49:17.525Z,5.75
2023-04-10T20:51:44.025Z,4.82
2023-04-10T20:54:11.678Z,5.15
2023-04-10T20:56:43.303Z,4.70
2023-04-10T20:59:10.091Z,5.03
2023-04-10T21:01:36.742Z,5.30
2023-04-10T21:04:03.469Z,5.43
2023-04-10T21:06:33.175Z,5.43
2023-04-10T21:08:59.680Z,5.25
2023-04-10T21:11:27.133Z,6.22
2023-04-10T21:13:54.018Z,5.93
2023-04-10T21:16:20.600Z,4.95
2023-04-10T21:18:47.808Z,7.22
2023-04-10T21:21:14.755Z,7.20
2023-04-10T21:23:41.468Z,6.00
2023-04-10T21:26:08.159Z,6.30
2023-04-10T21:28:34.657Z,7.00
2023-04-10T21:31:01.216Z,8.20
2023-04-10T21:33:27.787Z,5.82
2023-04-10T21:35:54.327Z,5.32
2023-04-10T21:38:20.872Z,6.63
2023-04-10T21:40:54.312Z,5.63
2023-04-10T21:43:21.528Z,5.75
2023-04-10T21:45:48.505Z,6.63
2023-04-10T21:48:15.248Z,7.15
2023-04-10T21:50:41.996Z,7.10
2023-04-10T21:53:08.767Z,7.95
2023-04-10T21:55:35.321Z,6.57
2023-04-10T21:58:01.977Z,7.90
2023-04-10T22:00:28.844Z,8.68
2023-04-10T22:02:55.782Z,7.75
2023-04-10T22:05:24.303Z,6.90
2023-04-10T22:07:51.382Z,7.28
2023-04-10T22:10:17.913Z,8.10
2023-04-10T22:12:46.014Z,7.35
2023-04-10T22:15:14.582Z,8.63
2023-04-10T22:17:41.149Z,6.20
2023-04-10T22:20:07.987Z,7.57
2023-04-10T22:22:34.573Z,6.95
2023-04-10T22:25:01.166Z,8.13
2023-04-10T22:27:27.656Z,7.85
2023-04-10T22:30:03.150Z,9.55
2023-04-10T22:32:31.757Z,10.73
2023-04-10T22:34:59.801Z,9.02
2023-04-10T22:37:27.097Z,9.50
2023-04-10T22:39:55.924Z,9.52
2023-04-10T22:42:22.688Z,9.75
2023-04-10T22:44:49.235Z,10.60
2023-04-10T22:47:15.754Z,9.55
2023-04-10T22:49:42.338Z,6.75
2023-04-10T22:52:08.843Z,9.32
2023-04-10T22:54:35.373Z,7.78
2023-04-10T22:57:01.873Z,10.85
2023-04-10T22:59:28.433Z,10.95
2023-04-10T23:01:55.094Z,12.13
2023-04-10T23:04:21.704Z,7.60
2023-04-10T23:06:48.212Z,10.05
2023-04-10T23:09:14.682Z,9.15
2023-04-10T23:11:41.262Z,9.82
2023-04-10T23:14:07.796Z,9.35
2023-04-10T23:16:34.325Z,9.02
2023-04-10T23:19:00.890Z,11.52
2023-04-10T23:21:27.500Z,9.20
2023-04-10T23:23:54.008Z,10.73
2023-04-10T23:26:20.832Z,9.90
2023-04-10T23:28:47.721Z,11.13
2023-04-10T23:31:14.458Z,10.98
2023-04-10T23:33:41.273Z,13.40
2023-04-10T23:36:08.305Z,12.98
2023-04-10T23:38:35.058Z,11.43
2023-04-10T23:41:02.869Z,14.05
2023-04-10T23:43:29.457Z,11.07
2023-04-10T23:45:55.931Z,12.82
2023-04-10T23:48:22.478Z,13.57
2023-04-10T23:50:49.018Z,10.93
2023-04-10T23:53:15.537Z,9.30
2023-04-10T23:55:42.504Z,14.77
2023-04-10T23:58:09.119Z,12.02
